Skip Navigation Links Skip Navigation Links

Current Weather

Mc Clellan-Palomar, Carlsbad, Calif.

For information only: do not use for flight planning or navigation.
Latest weather
Observation time Tuesday, October 19, 2021 12:53 AM PDT
Local time Tuesday, October 19, 2021 1:48 AM PDT
Flight conditions Visual Meteorological Conditions
Winds
Wind direction East-Northeast (70°)
Wind speed 6 mph
Visibility 10 mi.
Sky condition
Ceiling unlimited
Sky clear
Temperature 52°F
Dewpoint 46°F
Altimeter 29.98 in.Hg
Derived measurements
Relative humidity 80%
Density altitude -50 ft.
Sea-level pressure 29.98 in.Hg
Climate data
Temperature minimum, last 24 hours 52°F
Temperature maximum, last 24 hours 65°F
Remarks
Fully automated report.
Automated weather observing station with precipitation discriminator.
METAR KCRQ 190753Z AUTO 07005KT 10SM CLR 11/08 A2998 RMK AO2 SLP151 T01110078 401830111

Settings

Location code

InnerDrive.Weather 4.0.6770.0 Release CLR 4.0.30319.42000
Copyright ©2018 Inner Drive Technology. All rights reserved. Portions Copyright ©1986-2018 David Braverman.

Find weather

Site navigation


Skip Navigation Links

Place info

Page info

PayPal - The safer, easier way to pay online!

Return home.

Copyright ©2021 Inner Drive Technology. Purveyors of fine, hand-crafted computer software. Page printed 2021-10-19T08:48:50 UTC.